createdAt,value
2023-01-30T00:00:12.511Z,104
2023-01-30T00:01:20.819Z,114.5
2023-01-30T00:02:28.902Z,114.5
2023-01-30T00:03:38.086Z,103.27
2023-01-30T00:04:46.286Z,102.53
2023-01-30T00:05:55.437Z,112.06
2023-01-30T00:07:04.625Z,103.02
2023-01-30T00:08:13.775Z,103.75
2023-01-30T00:09:22.957Z,104.49
2023-01-30T00:10:32.130Z,103.02
2023-01-30T00:11:41.312Z,102.78
2023-01-30T00:12:50.470Z,101.56
2023-01-30T00:13:59.650Z,107.91
2023-01-30T00:15:08.830Z,103.51
2023-01-30T00:16:17.997Z,103.02
2023-01-30T00:17:27.191Z,101.8
2023-01-30T00:18:36.346Z,102.53
2023-01-30T00:19:44.532Z,102.53
2023-01-30T00:20:53.694Z,107.42
2023-01-30T00:22:02.858Z,104.49
2023-01-30T00:23:12.083Z,103.27
2023-01-30T00:24:21.297Z,105.22
2023-01-30T00:25:30.396Z,102.53
2023-01-30T00:26:38.629Z,104.49
2023-01-30T00:27:46.771Z,111.57
2023-01-30T00:28:56.064Z,104.49
2023-01-30T00:30:05.192Z,102.53
2023-01-30T00:31:14.290Z,102.29
2023-01-30T00:32:23.530Z,103.27
2023-01-30T00:33:31.664Z,103.02
2023-01-30T00:34:40.021Z,105.46
2023-01-30T00:35:49.180Z,112.06
2023-01-30T00:38:07.590Z,109.13
2023-01-30T00:39:16.692Z,104.49
2023-01-30T00:40:25.722Z,125.97
2023-01-30T00:41:35.082Z,102.29
2023-01-30T00:42:44.211Z,102.78
2023-01-30T00:43:53.231Z,105.95
2023-01-30T00:45:02.397Z,101.8
2023-01-30T00:46:11.569Z,103.27
2023-01-30T00:47:20.743Z,103.51
2023-01-30T00:48:30.117Z,101.07
2023-01-30T00:50:47.446Z,103.51
2023-01-30T00:51:55.693Z,103.51
2023-01-30T00:53:03.674Z,103.02
2023-01-30T00:54:13.066Z,102.53
2023-01-30T00:55:22.197Z,106.68
2023-01-30T00:56:31.196Z,104
2023-01-30T00:57:40.533Z,103.51
2023-01-30T00:58:49.677Z,104.24
2023-01-30T00:59:58.925Z,109.86
2023-01-30T01:01:08.034Z,109.86
2023-01-30T01:02:17.096Z,105.71
2023-01-30T01:03:26.244Z,101.07
2023-01-30T01:04:34.611Z,118.89
2023-01-30T01:05:42.847Z,103.51
2023-01-30T01:06:51.959Z,104.73
2023-01-30T01:08:01.124Z,101.31
2023-01-30T01:09:10.133Z,107.17
2023-01-30T01:10:19.306Z,103.75
2023-01-30T01:11:28.661Z,102.78
2023-01-30T01:12:37.822Z,102.29
2023-01-30T01:13:46.834Z,100.58
2023-01-30T01:14:56.149Z,106.44
2023-01-30T01:16:05.248Z,103.27
2023-01-30T01:17:14.497Z,108.39
2023-01-30T01:18:23.694Z,100.83
2023-01-30T01:19:32.847Z,103.75
2023-01-30T01:20:41.102Z,101.07
2023-01-30T01:21:50.218Z,122.55
2023-01-30T01:22:59.421Z,103.75
2023-01-30T01:24:08.499Z,99.6
2023-01-30T01:25:17.570Z,104
2023-01-30T01:26:26.923Z,99.6
2023-01-30T01:27:36.108Z,99.6
2023-01-30T01:28:44.116Z,100.34
2023-01-30T01:29:52.503Z,104.98
2023-01-30T01:31:01.634Z,109.13
2023-01-30T01:32:10.806Z,100.58
2023-01-30T01:33:20.092Z,99.36
2023-01-30T01:34:29.111Z,102.05
2023-01-30T01:35:38.257Z,98.87
2023-01-30T01:36:46.517Z,100.34
2023-01-30T01:37:54.754Z,107.66
2023-01-30T01:39:03.991Z,101.07
2023-01-30T01:40:13.058Z,101.07
2023-01-30T01:41:22.167Z,100.58
2023-01-30T01:42:31.252Z,103.02
2023-01-30T01:43:40.636Z,104
2023-01-30T01:44:49.582Z,101.8
2023-01-30T01:45:58.906Z,108.15
2023-01-30T01:47:08.016Z,102.78
2023-01-30T01:48:17.261Z,100.58
2023-01-30T01:49:26.431Z,111.57
2023-01-30T01:50:35.609Z,103.02
2023-01-30T01:51:44.721Z,100.58
2023-01-30T01:54:02.205Z,117.91
2023-01-30T01:55:11.309Z,99.12
2023-01-30T01:56:20.580Z,102.53
2023-01-30T01:57:29.743Z,102.78
2023-01-30T01:58:38.839Z,103.27
2023-01-30T01:59:48.012Z,103.02
2023-01-30T02:00:57.075Z,100.58
2023-01-30T02:02:05.319Z,99.6
2023-01-30T02:03:13.571Z,101.07
2023-01-30T02:04:21.742Z,112.3
2023-01-30T02:05:29.957Z,99.6
2023-01-30T02:06:39.072Z,100.34
2023-01-30T02:07:48.291Z,100.09
2023-01-30T02:08:57.475Z,102.53
2023-01-30T02:10:06.686Z,97.65
2023-01-30T02:11:15.836Z,100.58
2023-01-30T02:12:24.989Z,114.74
2023-01-30T02:13:34.191Z,103.02
2023-01-30T02:14:43.321Z,97.41
2023-01-30T02:15:52.599Z,118.4
2023-01-30T02:17:01.807Z,103.75
2023-01-30T02:18:10.866Z,112.54
2023-01-30T02:19:19.861Z,95.7
2023-01-30T02:20:28.299Z,93.75
2023-01-30T02:21:37.415Z,94.48
2023-01-30T02:22:46.400Z,96.19
2023-01-30T02:23:55.569Z,102.78
2023-01-30T02:25:04.746Z,92.04
2023-01-30T02:26:13.917Z,106.2
2023-01-30T02:27:23.302Z,100.09
2023-01-30T02:28:31.433Z,89.59
2023-01-30T02:29:39.645Z,93.75
2023-01-30T02:30:48.818Z,90.33
2023-01-30T02:31:56.993Z,101.8
2023-01-30T02:33:05.183Z,90.08
2023-01-30T02:34:14.367Z,93.99
2023-01-30T02:35:23.389Z,89.35
2023-01-30T02:36:32.718Z,118.16
2023-01-30T02:37:41.927Z,89.11
2023-01-30T02:38:51.042Z,94.72
2023-01-30T02:40:00.241Z,94.48
2023-01-30T02:41:09.242Z,95.21
2023-01-30T02:42:18.592Z,91.55
2023-01-30T02:43:27.792Z,88.62
2023-01-30T02:44:36.922Z,90.33
2023-01-30T02:46:55.280Z,92.28
2023-01-30T02:48:03.289Z,96.92
2023-01-30T02:49:12.463Z,90.33
2023-01-30T02:50:21.802Z,112.79
2023-01-30T02:52:40.167Z,91.55
2023-01-30T02:53:48.272Z,88.62
2023-01-30T02:54:56.538Z,90.82
2023-01-30T02:56:05.755Z,90.08
2023-01-30T02:57:14.844Z,89.11
2023-01-30T02:58:24.068Z,88.86
2023-01-30T02:59:33.234Z,90.82
2023-01-30T03:00:42.415Z,94.23
2023-01-30T03:03:00.582Z,93.26
2023-01-30T03:04:09.915Z,92.28
2023-01-30T03:05:18.937Z,93.5
2023-01-30T03:06:28.115Z,118.65
2023-01-30T03:07:37.278Z,95.21
2023-01-30T03:08:46.592Z,104.98
2023-01-30T03:09:54.821Z,96.67
2023-01-30T03:11:03.975Z,104
2023-01-30T03:12:13.136Z,96.19
2023-01-30T03:13:22.324Z,103.27
2023-01-30T03:14:31.513Z,96.92
2023-01-30T03:15:40.508Z,98.38
2023-01-30T03:16:49.873Z,95.21
2023-01-30T03:17:58.844Z,97.41
2023-01-30T03:19:08.231Z,95.7
2023-01-30T03:20:16.349Z,101.8
2023-01-30T03:21:24.594Z,99.6
2023-01-30T03:22:33.565Z,95.94
2023-01-30T03:23:41.908Z,99.12
2023-01-30T03:24:50.095Z,99.85
2023-01-30T03:25:59.294Z,103.75
2023-01-30T03:27:08.400Z,99.36
2023-01-30T03:28:17.693Z,96.67
2023-01-30T03:29:26.811Z,95.45
2023-01-30T03:30:35.983Z,97.41
2023-01-30T03:31:45.097Z,97.9
2023-01-30T03:32:54.340Z,98.87
2023-01-30T03:34:03.499Z,111.32
2023-01-30T03:35:12.514Z,104.73
2023-01-30T03:36:21.871Z,95.94
2023-01-30T03:37:31.083Z,101.07
2023-01-30T03:38:40.307Z,97.41
2023-01-30T03:39:48.400Z,101.07
2023-01-30T03:40:57.472Z,96.92
2023-01-30T03:43:15.826Z,96.19
2023-01-30T03:44:24.914Z,98.38
2023-01-30T03:45:34.076Z,97.41
2023-01-30T03:46:43.370Z,102.29
2023-01-30T03:47:52.426Z,97.65
2023-01-30T03:49:00.616Z,97.65
2023-01-30T03:50:08.964Z,103.51
2023-01-30T03:51:18.149Z,101.07
2023-01-30T03:52:27.278Z,101.8
2023-01-30T03:53:36.480Z,99.36
2023-01-30T03:54:45.649Z,103.02
2023-01-30T03:55:54.681Z,99.36
2023-01-30T03:57:04.014Z,99.85
2023-01-30T03:58:13.200Z,98.38
2023-01-30T03:59:22.333Z,108.39
2023-01-30T04:00:30.567Z,98.38
2023-01-30T04:01:38.774Z,94.23
2023-01-30T04:02:47.904Z,94.72
2023-01-30T04:03:56.922Z,117.43
2023-01-30T04:05:06.184Z,95.21
2023-01-30T04:06:15.389Z,96.92
2023-01-30T04:07:24.451Z,94.48
2023-01-30T04:08:33.654Z,93.75
2023-01-30T04:09:42.808Z,92.77
2023-01-30T04:10:51.970Z,94.72
2023-01-30T04:12:01.250Z,95.94
2023-01-30T04:13:10.472Z,100.09
2023-01-30T04:14:19.494Z,96.43
2023-01-30T04:15:28.755Z,93.75
2023-01-30T04:16:37.008Z,94.97
2023-01-30T04:17:46.098Z,91.79
2023-01-30T04:18:55.209Z,92.52
2023-01-30T04:20:04.367Z,91.55
2023-01-30T04:21:13.735Z,91.3
2023-01-30T04:22:22.866Z,92.04
2023-01-30T04:23:32.028Z,96.19
2023-01-30T04:24:40.215Z,90.57
2023-01-30T04:25:48.446Z,92.52
2023-01-30T04:26:57.483Z,91.3
2023-01-30T04:28:05.675Z,100.34
2023-01-30T04:29:15.018Z,89.59
2023-01-30T04:30:22.978Z,91.55
2023-01-30T04:31:32.294Z,106.68
2023-01-30T04:32:41.475Z,98.38
2023-01-30T04:33:50.589Z,91.3
2023-01-30T04:36:09.008Z,90.08
2023-01-30T04:37:18.221Z,90.57
2023-01-30T04:38:27.304Z,87.64
2023-01-30T04:39:36.367Z,92.28
2023-01-30T04:40:45.663Z,100.58
2023-01-30T04:41:54.888Z,91.55
2023-01-30T04:43:03.032Z,93.75
2023-01-30T04:44:12.128Z,89.35
2023-01-30T04:45:21.309Z,90.08
2023-01-30T04:46:30.541Z,90.57
2023-01-30T04:47:39.785Z,90.82
2023-01-30T04:48:48.852Z,93.75
2023-01-30T04:49:58.096Z,91.55
2023-01-30T04:51:07.262Z,97.9
2023-01-30T04:52:16.418Z,92.04
2023-01-30T04:53:24.506Z,92.77
2023-01-30T04:54:32.669Z,94.97
2023-01-30T04:55:42.003Z,93.75
2023-01-30T04:56:51.163Z,95.21
2023-01-30T04:58:00.246Z,113.76
2023-01-30T04:59:09.485Z,96.19
2023-01-30T05:00:18.644Z,94.48
2023-01-30T05:01:26.784Z,96.43
2023-01-30T05:02:34.902Z,97.41
2023-01-30T05:04:53.401Z,98.63
2023-01-30T05:06:02.494Z,96.19
2023-01-30T05:07:11.666Z,96.92
2023-01-30T05:08:20.878Z,96.19
2023-01-30T05:09:30.130Z,101.8
2023-01-30T05:10:39.336Z,98.87
2023-01-30T05:11:48.439Z,97.41
2023-01-30T05:12:57.583Z,100.09
2023-01-30T05:14:06.774Z,99.85
2023-01-30T05:15:15.787Z,97.9
2023-01-30T05:16:25.133Z,99.6
2023-01-30T05:17:33.171Z,98.87
2023-01-30T05:18:42.517Z,99.85
2023-01-30T05:19:51.652Z,98.38
2023-01-30T05:21:00.783Z,103.51
2023-01-30T05:22:09.967Z,101.07
2023-01-30T05:23:19.021Z,99.85
2023-01-30T05:24:28.373Z,114.5
2023-01-30T05:25:37.395Z,99.12
2023-01-30T05:26:45.737Z,99.6
2023-01-30T05:27:53.854Z,103.51
2023-01-30T05:29:03.074Z,100.83
2023-01-30T05:31:21.345Z,97.9
2023-01-30T05:32:29.679Z,98.14
2023-01-30T05:33:37.713Z,101.31
2023-01-30T05:34:46.953Z,99.12
2023-01-30T05:35:56.200Z,97.9
2023-01-30T05:37:05.326Z,98.14
2023-01-30T05:38:14.391Z,100.09
2023-01-30T05:39:23.679Z,101.07
2023-01-30T05:40:32.838Z,98.87
2023-01-30T05:41:42.022Z,98.14
2023-01-30T05:42:51.063Z,98.63
2023-01-30T05:45:09.573Z,103.27
2023-01-30T05:46:18.593Z,98.14
2023-01-30T05:47:27.813Z,99.12
2023-01-30T05:48:35.960Z,99.85
2023-01-30T05:49:45.089Z,99.85
2023-01-30T05:50:54.350Z,100.09
2023-01-30T05:53:12.741Z,101.07
2023-01-30T05:54:20.811Z,103.02
2023-01-30T05:56:38.350Z,100.83
2023-01-30T05:57:47.477Z,99.85
2023-01-30T05:58:56.628Z,105.71
2023-01-30T06:00:05.832Z,103.02
2023-01-30T06:02:24.087Z,103.51
2023-01-30T06:03:33.194Z,104.73
2023-01-30T06:04:42.385Z,106.44
2023-01-30T06:05:51.559Z,109.37
2023-01-30T06:07:00.800Z,109.13
2023-01-30T06:08:09.979Z,110.59
2023-01-30T06:09:19.262Z,109.61
2023-01-30T06:10:27.256Z,111.57
2023-01-30T06:11:36.532Z,109.13
2023-01-30T06:12:45.582Z,109.37
2023-01-30T06:13:54.878Z,112.3
2023-01-30T06:15:03.992Z,110.1
2023-01-30T06:16:13.225Z,111.81
2023-01-30T06:17:22.317Z,111.81
2023-01-30T06:18:31.527Z,111.81
2023-01-30T06:19:40.796Z,117.43
2023-01-30T06:21:58.152Z,119.87
2023-01-30T06:23:06.383Z,120.6
2023-01-30T06:24:14.423Z,120.6
2023-01-30T06:25:22.611Z,120.11
2023-01-30T06:26:30.901Z,122.55
2023-01-30T06:27:40.119Z,120.6
2023-01-30T06:28:49.234Z,121.33
2023-01-30T06:29:58.375Z,119.87
2023-01-30T06:31:07.474Z,121.33
2023-01-30T06:32:16.707Z,121.33
2023-01-30T06:33:25.876Z,119.14
2023-01-30T06:34:35.148Z,119.87
2023-01-30T06:35:44.284Z,119.87
2023-01-30T06:36:53.388Z,121.33
2023-01-30T06:38:02.529Z,122.31
2023-01-30T06:39:10.801Z,122.8
2023-01-30T06:40:18.886Z,122.07
2023-01-30T06:41:28.030Z,123.53
2023-01-30T06:42:37.321Z,121.58
2023-01-30T06:43:46.387Z,121.33
2023-01-30T06:44:55.607Z,122.31
2023-01-30T06:46:04.729Z,121.58
2023-01-30T06:47:13.989Z,123.29
2023-01-30T06:48:23.129Z,123.53
2023-01-30T06:49:32.236Z,121.33
2023-01-30T06:50:41.534Z,124.75
2023-01-30T06:51:50.737Z,122.07
2023-01-30T06:52:59.868Z,122.07
2023-01-30T06:54:09.096Z,120.36
2023-01-30T06:55:17.116Z,123.53
2023-01-30T06:56:26.398Z,121.82
2023-01-30T06:57:35.563Z,122.55
2023-01-30T06:58:44.721Z,122.55
2023-01-30T06:59:53.948Z,123.29
2023-01-30T07:01:03.138Z,120.11
2023-01-30T07:02:12.163Z,122.8
2023-01-30T07:03:20.360Z,122.8
2023-01-30T07:04:28.621Z,122.31
2023-01-30T07:05:36.883Z,119.62
2023-01-30T07:06:45.103Z,119.62
2023-01-30T07:07:54.239Z,122.07
2023-01-30T07:09:03.476Z,122.31
2023-01-30T07:10:12.561Z,122.31
2023-01-30T07:11:21.641Z,122.07
2023-01-30T07:12:30.880Z,122.55
2023-01-30T07:13:40.132Z,122.55
2023-01-30T07:14:49.161Z,122.8
2023-01-30T07:15:58.451Z,120.84
2023-01-30T07:17:07.582Z,122.55
2023-01-30T07:18:16.831Z,118.65
2023-01-30T07:19:25.861Z,122.55
2023-01-30T07:20:35.073Z,121.58
2023-01-30T07:21:43.191Z,125.73
2023-01-30T07:22:52.486Z,122.8
2023-01-30T07:25:10.793Z,121.33
2023-01-30T07:26:20.078Z,121.82
2023-01-30T07:27:29.201Z,124.26
2023-01-30T07:28:38.431Z,122.07
2023-01-30T07:30:56.652Z,124.02
2023-01-30T07:32:04.845Z,119.62
2023-01-30T07:33:13.025Z,123.04
2023-01-30T07:35:31.350Z,124.51
2023-01-30T07:36:40.632Z,124.02
2023-01-30T07:37:48.800Z,121.33
2023-01-30T07:38:57.054Z,121.58
2023-01-30T07:40:06.040Z,122.07
2023-01-30T07:41:15.339Z,120.6
2023-01-30T07:42:24.504Z,121.09
2023-01-30T07:43:33.636Z,121.58
2023-01-30T07:44:42.887Z,121.33
2023-01-30T07:45:51.970Z,122.55
2023-01-30T07:47:01.072Z,120.84
2023-01-30T07:48:10.473Z,121.82
2023-01-30T07:49:19.413Z,121.09
2023-01-30T07:50:28.584Z,120.6
2023-01-30T07:51:37.879Z,121.09
2023-01-30T07:52:47.191Z,120.6
2023-01-30T07:53:56.168Z,122.8
2023-01-30T07:55:04.411Z,121.58
2023-01-30T07:56:13.579Z,120.84
2023-01-30T07:57:22.839Z,119.87
2023-01-30T07:58:31.935Z,121.82
2023-01-30T07:59:41.122Z,120.6
2023-01-30T08:00:50.176Z,122.55
2023-01-30T08:01:59.366Z,122.31
2023-01-30T08:03:08.536Z,118.89
2023-01-30T08:04:17.856Z,123.04
2023-01-30T08:05:25.905Z,121.58
2023-01-30T08:06:34.226Z,119.87
2023-01-30T08:07:42.426Z,120.84
2023-01-30T08:08:50.449Z,121.82
2023-01-30T08:09:59.719Z,121.09
2023-01-30T08:11:08.901Z,120.11
2023-01-30T08:13:27.304Z,121.33
2023-01-30T08:14:36.312Z,120.6
2023-01-30T08:15:45.664Z,119.38
2023-01-30T08:16:54.694Z,118.89
2023-01-30T08:18:04.013Z,121.33
2023-01-30T08:19:13.110Z,125.73
2023-01-30T08:20:22.307Z,120.6
2023-01-30T08:21:31.362Z,119.62
2023-01-30T08:22:40.557Z,118.65
2023-01-30T08:23:48.766Z,118.4
2023-01-30T08:24:57.896Z,120.36
2023-01-30T08:26:07.073Z,122.55
2023-01-30T08:27:16.338Z,122.8
2023-01-30T08:28:25.417Z,119.87
2023-01-30T08:29:34.692Z,121.82
2023-01-30T08:30:43.761Z,122.07
2023-01-30T08:31:52.995Z,120.6
2023-01-30T08:33:01.187Z,121.09
2023-01-30T08:34:09.321Z,120.11
2023-01-30T08:35:18.539Z,120.36
2023-01-30T08:36:26.796Z,123.04
2023-01-30T08:37:34.993Z,119.38
2023-01-30T08:38:44.024Z,121.58
2023-01-30T08:39:53.316Z,121.33
2023-01-30T08:41:02.498Z,121.33
2023-01-30T08:42:11.546Z,121.82
2023-01-30T08:43:20.863Z,123.04
2023-01-30T08:44:29.987Z,121.58
2023-01-30T08:45:39.096Z,120.6
2023-01-30T08:46:48.235Z,119.38
2023-01-30T08:47:57.536Z,119.62
2023-01-30T08:49:06.736Z,121.33
2023-01-30T08:50:15.764Z,120.11
2023-01-30T08:51:25.117Z,119.38
2023-01-30T08:52:33.297Z,120.84
2023-01-30T08:53:42.464Z,120.6
2023-01-30T08:54:51.470Z,121.58
2023-01-30T08:56:00.733Z,121.58
2023-01-30T08:57:09.824Z,120.84
2023-01-30T08:59:28.347Z,120.36
2023-01-30T09:00:37.411Z,121.82
2023-01-30T09:01:46.663Z,122.8
2023-01-30T09:02:55.807Z,122.07
2023-01-30T09:04:04.977Z,121.33
2023-01-30T09:05:14.080Z,119.87
2023-01-30T09:06:23.312Z,118.16
2023-01-30T09:07:31.508Z,121.33
2023-01-30T09:08:40.551Z,121.58
2023-01-30T09:09:49.722Z,121.33
2023-01-30T09:10:59.047Z,122.07
2023-01-30T09:12:08.090Z,119.14
2023-01-30T09:13:17.472Z,121.82
2023-01-30T09:14:26.581Z,127.19
2023-01-30T09:15:35.668Z,122.8
2023-01-30T09:16:44.757Z,123.04
2023-01-30T09:17:54.090Z,123.29
2023-01-30T09:21:21.620Z,121.09
2023-01-30T09:22:29.681Z,122.07
2023-01-30T09:23:37.899Z,118.65
2023-01-30T09:24:47.022Z,121.58
2023-01-30T09:25:56.291Z,120.6
2023-01-30T09:27:05.494Z,122.31
2023-01-30T09:28:14.546Z,121.82
2023-01-30T09:29:23.793Z,118.89
2023-01-30T09:30:32.996Z,120.6
2023-01-30T09:31:42.096Z,121.82
2023-01-30T09:32:51.312Z,120.36
2023-01-30T09:34:00.520Z,120.36
2023-01-30T09:35:08.573Z,120.6
2023-01-30T09:36:16.761Z,120.6
2023-01-30T09:37:26.025Z,118.65
2023-01-30T09:38:35.244Z,120.36
2023-01-30T09:39:44.293Z,118.65
2023-01-30T09:40:53.524Z,116.69
2023-01-30T09:42:02.778Z,113.52
2023-01-30T09:43:11.875Z,113.03
2023-01-30T09:44:20.984Z,111.32
2023-01-30T09:45:30.155Z,112.06
2023-01-30T09:46:39.375Z,110.83
2023-01-30T09:47:48.573Z,112.79
2023-01-30T09:48:57.800Z,111.81
2023-01-30T09:51:16.032Z,114.5
2023-01-30T09:52:24.290Z,114.99
2023-01-30T09:53:33.494Z,115.23
2023-01-30T09:54:42.599Z,113.52
2023-01-30T09:55:51.876Z,112.3
2023-01-30T09:57:00.920Z,117.18
2023-01-30T09:58:10.230Z,114.5
2023-01-30T09:59:19.246Z,117.18
2023-01-30T10:01:36.603Z,112.06
2023-01-30T10:02:44.900Z,113.28
2023-01-30T10:03:52.984Z,113.28
2023-01-30T10:05:02.202Z,113.76
2023-01-30T10:06:11.387Z,113.76
2023-01-30T10:07:20.564Z,114.74
2023-01-30T10:08:29.712Z,116.94
2023-01-30T10:09:38.934Z,117.18
2023-01-30T10:10:48.151Z,119.87
2023-01-30T10:11:57.178Z,122.55
2023-01-30T10:13:06.528Z,123.29
2023-01-30T10:14:15.709Z,122.55
2023-01-30T10:15:24.862Z,117.18
2023-01-30T10:16:34.039Z,116.94
2023-01-30T10:17:43.207Z,119.38
2023-01-30T10:18:52.228Z,119.62
2023-01-30T10:20:00.431Z,117.91
2023-01-30T10:21:09.744Z,120.11
2023-01-30T10:22:18.940Z,119.38
2023-01-30T10:23:28.075Z,118.65
2023-01-30T10:24:37.202Z,119.87
2023-01-30T10:25:46.268Z,121.82
2023-01-30T10:26:55.620Z,117.91
2023-01-30T10:29:13.960Z,116.45
2023-01-30T10:30:23.198Z,121.58
2023-01-30T10:31:32.317Z,118.65
2023-01-30T10:32:41.468Z,117.91
2023-01-30T10:33:50.678Z,117.91
2023-01-30T10:34:58.674Z,118.65
2023-01-30T10:36:07.929Z,117.91
2023-01-30T10:37:16.277Z,115.23
2023-01-30T10:38:24.336Z,137.2
2023-01-30T10:39:33.548Z,111.81
2023-01-30T10:40:41.810Z,114.5
2023-01-30T10:41:49.928Z,112.79
2023-01-30T10:42:59.036Z,111.81
2023-01-30T10:44:08.294Z,113.52
2023-01-30T10:45:17.311Z,113.03
2023-01-30T10:46:26.627Z,112.54
2023-01-30T10:47:35.814Z,113.03
2023-01-30T10:48:44.837Z,111.57
2023-01-30T10:49:54.203Z,112.3
2023-01-30T10:51:03.308Z,111.08
2023-01-30T10:53:21.686Z,116.69
2023-01-30T10:54:30.836Z,113.03
2023-01-30T10:55:40.010Z,111.32
2023-01-30T10:56:48.056Z,111.81
2023-01-30T10:59:06.561Z,114.01
2023-01-30T11:00:14.667Z,112.79
2023-01-30T11:01:22.770Z,114.99
2023-01-30T11:02:31.940Z,114.01
2023-01-30T11:04:50.414Z,111.81
2023-01-30T11:05:59.552Z,112.79
2023-01-30T11:07:07.797Z,116.21
2023-01-30T11:08:15.934Z,109.37
2023-01-30T11:09:25.022Z,110.83
2023-01-30T11:10:34.190Z,109.61
2023-01-30T11:11:43.377Z,109.61
2023-01-30T11:12:52.547Z,124.75
2023-01-30T11:14:01.844Z,111.32
2023-01-30T11:15:11.007Z,109.61
2023-01-30T11:16:20.153Z,110.83
2023-01-30T11:19:47.575Z,110.35
2023-01-30T11:20:56.855Z,111.32
2023-01-30T11:22:05.129Z,112.79
2023-01-30T11:23:13.143Z,112.54
2023-01-30T11:24:22.377Z,111.32
2023-01-30T11:25:31.569Z,112.06
2023-01-30T11:26:40.647Z,112.79
2023-01-30T11:27:49.965Z,110.59
2023-01-30T11:28:59.138Z,110.59
2023-01-30T11:30:08.258Z,112.06
2023-01-30T11:31:17.508Z,110.35
2023-01-30T11:32:26.651Z,108.88
2023-01-30T11:33:35.837Z,112.06
2023-01-30T11:34:44.024Z,113.03
2023-01-30T11:35:52.247Z,113.76
2023-01-30T11:37:01.260Z,118.89
2023-01-30T11:38:10.601Z,110.59
2023-01-30T11:39:19.591Z,113.03
2023-01-30T11:40:28.764Z,112.3
2023-01-30T11:41:38.148Z,110.59
2023-01-30T11:42:47.104Z,112.54
2023-01-30T11:43:56.368Z,113.52
2023-01-30T11:45:05.591Z,113.76
2023-01-30T11:46:14.790Z,111.57
2023-01-30T11:48:32.007Z,110.83
2023-01-30T11:49:40.337Z,111.32
2023-01-30T11:50:49.548Z,111.57
2023-01-30T11:51:58.656Z,113.03
2023-01-30T11:53:07.853Z,126.46
2023-01-30T11:54:16.976Z,111.81
2023-01-30T11:55:26.137Z,120.84
2023-01-30T11:56:35.366Z,111.08
2023-01-30T11:57:44.458Z,112.54
2023-01-30T11:58:53.692Z,112.06
2023-01-30T12:00:01.945Z,110.83
2023-01-30T12:01:09.941Z,111.81
2023-01-30T12:02:19.116Z,112.3
2023-01-30T12:03:28.452Z,110.83
2023-01-30T12:04:37.607Z,112.06
2023-01-30T12:05:46.789Z,114.5
2023-01-30T12:06:55.902Z,119.62
2023-01-30T12:08:05.055Z,114.01
2023-01-30T12:09:14.310Z,110.35
2023-01-30T12:10:23.439Z,113.76
2023-01-30T12:12:41.696Z,111.32
2023-01-30T12:13:50.853Z,112.54
2023-01-30T12:15:00.115Z,112.06
2023-01-30T12:16:08.386Z,112.79
2023-01-30T12:18:26.668Z,113.76
2023-01-30T12:19:34.895Z,109.86
2023-01-30T12:20:43.016Z,111.32
2023-01-30T12:21:52.260Z,111.32
2023-01-30T12:23:01.281Z,111.32
2023-01-30T12:24:10.598Z,112.54
2023-01-30T12:25:18.730Z,111.81
2023-01-30T12:26:27.980Z,111.81
2023-01-30T12:27:37.139Z,113.76
2023-01-30T12:28:46.287Z,112.06
2023-01-30T12:29:55.436Z,117.43
2023-01-30T12:31:04.650Z,111.81
2023-01-30T12:32:12.922Z,112.3
2023-01-30T12:33:21.127Z,112.54
2023-01-30T12:35:39.243Z,110.59
2023-01-30T12:36:48.499Z,113.76
2023-01-30T12:37:57.752Z,112.06
2023-01-30T12:39:06.741Z,122.07
2023-01-30T12:40:16.020Z,109.61
2023-01-30T12:41:25.262Z,109.61
2023-01-30T12:42:34.267Z,106.68
2023-01-30T12:43:43.451Z,106.2
2023-01-30T12:44:52.737Z,106.68
2023-01-30T12:46:01.855Z,105.46
2023-01-30T12:47:11.071Z,107.66
2023-01-30T12:48:19.312Z,107.91
2023-01-30T12:49:28.427Z,108.88
2023-01-30T12:50:37.662Z,114.99
2023-01-30T12:51:46.681Z,108.64
2023-01-30T12:52:56.003Z,109.13
2023-01-30T12:54:05.145Z,109.61
2023-01-30T12:55:14.312Z,108.64
2023-01-30T12:56:23.505Z,109.86
2023-01-30T12:57:31.547Z,109.61
2023-01-30T12:58:39.856Z,109.86
2023-01-30T12:59:48.921Z,110.59
2023-01-30T13:04:25.797Z,112.79
2023-01-30T13:05:34.937Z,114.01
2023-01-30T13:06:43.949Z,109.13
2023-01-30T13:07:53.202Z,114.01
2023-01-30T13:09:02.305Z,115.23
2023-01-30T13:10:11.601Z,109.61
2023-01-30T13:11:20.770Z,112.54
2023-01-30T13:12:29.983Z,112.54
2023-01-30T13:13:38.218Z,117.43
2023-01-30T13:14:46.380Z,113.03
2023-01-30T13:15:55.523Z,112.06
2023-01-30T13:17:04.531Z,113.28
2023-01-30T13:18:12.744Z,112.54
2023-01-30T13:19:21.025Z,114.25
2023-01-30T13:20:30.162Z,121.33
2023-01-30T13:21:39.257Z,110.59
2023-01-30T13:22:48.600Z,112.06
2023-01-30T13:23:57.601Z,111.81
2023-01-30T13:25:06.940Z,112.79
2023-01-30T13:26:16.058Z,112.06
2023-01-30T13:27:25.187Z,111.81
2023-01-30T13:29:43.669Z,111.32
2023-01-30T13:30:52.829Z,110.59
2023-01-30T13:32:01.995Z,109.86
2023-01-30T13:33:11.148Z,110.83
2023-01-30T13:34:19.416Z,109.86
2023-01-30T13:35:28.598Z,111.81
2023-01-30T13:36:37.725Z,112.79
2023-01-30T13:37:46.948Z,108.39
2023-01-30T13:38:56.099Z,110.59
2023-01-30T13:40:05.220Z,111.08
2023-01-30T13:41:14.337Z,110.59
2023-01-30T13:42:23.616Z,111.32
2023-01-30T13:43:31.696Z,122.8
2023-01-30T13:44:40.013Z,109.61
2023-01-30T13:45:49.016Z,110.59
2023-01-30T13:46:57.227Z,118.89
2023-01-30T13:48:05.406Z,107.91
2023-01-30T13:49:14.580Z,109.13
2023-01-30T13:50:23.751Z,109.86
2023-01-30T13:51:33.067Z,108.15
2023-01-30T13:52:42.201Z,107.17
2023-01-30T13:53:51.260Z,106.44
2023-01-30T13:55:00.447Z,110.35
2023-01-30T13:56:09.669Z,109.13
2023-01-30T13:57:18.949Z,107.42
2023-01-30T13:58:28.082Z,109.37
2023-01-30T13:59:37.126Z,109.13
2023-01-30T14:00:46.298Z,108.15
2023-01-30T14:01:55.591Z,109.61
2023-01-30T14:03:03.666Z,109.86
2023-01-30T14:04:13.059Z,109.86
2023-01-30T14:06:31.294Z,110.1
2023-01-30T14:07:40.345Z,108.88
2023-01-30T14:08:49.693Z,108.88
2023-01-30T14:09:58.869Z,109.13
2023-01-30T14:11:08.032Z,109.37
2023-01-30T14:12:17.213Z,108.64
2023-01-30T14:13:26.373Z,107.66
2023-01-30T14:14:35.499Z,107.66
2023-01-30T14:22:39.767Z,107.42
2023-01-30T14:23:47.897Z,107.66
2023-01-30T14:26:05.373Z,107.91
2023-01-30T14:27:14.487Z,109.61
2023-01-30T14:28:23.493Z,108.39
2023-01-30T14:29:32.782Z,107.66
2023-01-30T14:30:41.930Z,107.66
2023-01-30T14:33:00.389Z,113.03
2023-01-30T14:34:08.382Z,108.39
2023-01-30T14:35:16.555Z,109.61
2023-01-30T14:36:25.910Z,107.66
2023-01-30T14:37:35.060Z,107.17
2023-01-30T14:39:53.259Z,109.86
2023-01-30T14:41:02.572Z,108.88
2023-01-30T14:42:11.738Z,108.88
2023-01-30T14:43:20.853Z,108.88
2023-01-30T14:44:29.935Z,109.86
2023-01-30T14:45:39.198Z,109.37
2023-01-30T14:46:48.428Z,109.13
2023-01-30T14:47:57.635Z,109.61
2023-01-30T14:50:15.826Z,108.88
2023-01-30T14:51:24.080Z,108.39
2023-01-30T14:52:32.191Z,110.35
2023-01-30T14:53:41.545Z,108.39
2023-01-30T14:54:50.575Z,111.08
2023-01-30T14:55:59.889Z,108.39
2023-01-30T14:57:09.062Z,107.91
2023-01-30T14:58:18.259Z,109.61
2023-01-30T14:59:27.377Z,107.42
2023-01-30T15:00:36.540Z,109.13
2023-01-30T15:02:54.756Z,109.86
2023-01-30T15:04:04.020Z,110.1
2023-01-30T15:05:13.282Z,108.39
2023-01-30T15:07:31.597Z,109.86
2023-01-30T15:08:39.756Z,110.59
2023-01-30T15:09:48.847Z,114.5
2023-01-30T15:10:58.167Z,107.17
2023-01-30T15:13:16.451Z,107.66
2023-01-30T15:14:25.646Z,111.32
2023-01-30T15:15:34.671Z,109.37
2023-01-30T15:16:43.829Z,109.13
2023-01-30T15:17:53.149Z,109.86
2023-01-30T15:19:02.341Z,112.54
2023-01-30T15:20:11.543Z,113.03
2023-01-30T15:21:20.750Z,111.57
2023-01-30T15:22:29.823Z,117.91
2023-01-30T15:23:37.903Z,114.74
2023-01-30T15:24:47.323Z,112.3
2023-01-30T15:25:56.389Z,114.5
2023-01-30T15:27:05.464Z,117.91
2023-01-30T15:28:14.753Z,113.76
2023-01-30T15:29:23.778Z,114.5